Time;durP1;ratioP1;P1;durP2;ratioP2;P2;SDS_P1;SDS_P2;PMS_P1;PMS_P2;Temp;Humidity;BMP_temperature;BMP_pressure;BME280_temperature;BME280_humidity;BME280_pressure;Samples;Min_cycle;Max_cycle;Signal;HPM_P1;HPM_P2
2022/01/31 00:02:16;;;;;;;13.47;3.13;;;;;;;2.27;100.00;99020.56;5091747;28;20039;-60
2022/01/31 00:04:44;;;;;;;9.33;2.90;;;;;;;2.33;100.00;99012.03;5091732;28;20032;-60
2022/01/31 00:07:10;;;;;;;9.73;2.90;;;;;;;2.43;100.00;99018.91;5091980;28;20043;-60
2022/01/31 00:09:37;;;;;;;12.73;3.10;;;;;;;2.37;100.00;99011.59;5091649;28;20272;-60
2022/01/31 00:12:08;;;;;;;10.90;3.10;;;;;;;2.35;100.00;99008.28;5091682;28;20676;-60
2022/01/31 00:14:43;;;;;;;16.23;3.13;;;;;;;2.32;100.00;98998.03;5091706;28;20257;-60
2022/01/31 00:17:10;;;;;;;9.73;3.17;;;;;;;2.26;100.00;98982.81;5091734;28;20272;-60
2022/01/31 00:19:36;;;;;;;12.83;3.80;;;;;;;2.24;100.00;98979.47;5091773;28;20794;-60
2022/01/31 00:22:04;;;;;;;12.70;3.63;;;;;;;2.24;100.00;98976.84;5091515;28;20811;-60
2022/01/31 00:24:30;;;;;;;13.83;3.10;;;;;;;2.24;100.00;98968.94;5091544;28;20745;-61
2022/01/31 00:26:55;;;;;;;11.33;3.33;;;;;;;2.21;100.00;98961.31;5091490;28;20272;-60
2022/01/31 00:29:21;;;;;;;12.13;2.80;;;;;;;2.21;100.00;98963.13;5091518;28;20032;-60
2022/01/31 00:31:46;;;;;;;10.53;2.90;;;;;;;2.19;100.00;98961.47;5091290;28;20044;-60
2022/01/31 00:34:12;;;;;;;13.83;3.00;;;;;;;2.15;100.00;98957.47;5091530;28;20093;-60
2022/01/31 00:36:37;;;;;;;8.97;3.27;;;;;;;2.12;100.00;98959.56;5091438;28;20032;-61
2022/01/31 00:39:04;;;;;;;13.50;3.00;;;;;;;2.15;100.00;98957.47;5091566;28;20444;-60
2022/01/31 00:41:30;;;;;;;9.03;3.07;;;;;;;2.14;100.00;98955.00;5091333;28;20472;-61
2022/01/31 00:44:03;;;;;;;8.87;3.13;;;;;;;2.05;100.00;98956.72;5091306;28;20268;-60
2022/01/31 00:46:41;;;;;;;14.23;3.60;;;;;;;2.07;100.00;98953.94;5091457;28;20028;-61
2022/01/31 00:49:15;;;;;;;13.17;3.17;;;;;;;2.04;100.00;98949.78;5091389;28;20028;-64
2022/01/31 00:51:41;;;;;;;;;;;;;;;2.02;100.00;98941.19;5092121;28;20261;-60
2022/01/31 00:54:06;;;;;;;9.80;3.00;;;;;;;2.02;100.00;98949.09;5095447;28;19907;-60
2022/01/31 00:56:32;;;;;;;8.50;2.90;;;;;;;2.03;100.00;98950.75;5095410;28;20032;-61
2022/01/31 00:58:57;;;;;;;9.90;2.73;;;;;;;2.14;100.00;98933.91;5095149;28;20502;-61
2022/01/31 01:01:23;;;;;;;6.83;2.80;;;;;;;2.07;100.00;98919.66;5095133;28;20056;-60
2022/01/31 01:03:48;;;;;;;11.70;3.17;;;;;;;1.97;100.00;98917.06;5095042;28;20054;-61
2022/01/31 01:06:14;;;;;;;11.70;3.13;;;;;;;1.93;100.00;98904.34;5095116;28;20031;-61
2022/01/31 01:08:40;;;;;;;9.93;3.10;;;;;;;1.82;100.00;98892.22;5095228;28;20545;-61
2022/01/31 01:11:05;;;;;;;13.93;3.30;;;;;;;1.73;100.00;98885.19;5094942;28;20310;-61
2022/01/31 01:13:31;;;;;;;11.37;3.23;;;;;;;1.64;100.00;98878.97;5095103;28;20076;-61
2022/01/31 01:15:56;;;;;;;10.33;3.20;;;;;;;1.73;100.00;98875.44;5094868;28;20023;-61
2022/01/31 01:18:22;;;;;;;13.60;3.30;;;;;;;1.77;100.00;98874.19;5094815;28;20024;-61
2022/01/31 01:20:48;;;;;;;16.07;3.03;;;;;;;1.61;100.00;98868.75;5094529;28;20027;-61
2022/01/31 01:23:13;;;;;;;12.80;3.27;;;;;;;1.68;100.00;98884.78;5094791;28;20630;-61
2022/01/31 01:25:39;;;;;;;11.37;3.23;;;;;;;1.63;100.00;98872.03;5094647;28;20031;-61
2022/01/31 01:28:04;;;;;;;9.53;3.10;;;;;;;1.84;100.00;98873.63;5094644;28;20047;-60
2022/01/31 01:30:30;;;;;;;10.10;2.90;;;;;;;1.81;100.00;98870.31;5094319;28;20036;-61
2022/01/31 01:35:29;;;;;;;13.30;3.30;;;;;;;1.57;100.00;98864.75;5094500;28;20188;-61
2022/01/31 01:37:55;;;;;;;7.80;2.77;;;;;;;1.75;100.00;98867.41;5094365;28;20346;-60
2022/01/31 01:40:20;;;;;;;9.87;3.00;;;;;;;1.83;100.00;98867.53;5094312;28;20338;-61
2022/01/31 01:42:46;;;;;;;11.23;3.27;;;;;;;1.85;100.00;98865.53;5094381;28;20039;-61
2022/01/31 01:45:12;;;;;;;8.77;3.43;;;;;;;1.77;100.00;98847.84;5094292;28;20023;-61
2022/01/31 01:47:37;;;;;;;11.77;3.20;;;;;;;1.72;100.00;98850.13;5094234;28;20112;-61
2022/01/31 01:50:04;;;;;;;13.07;3.30;;;;;;;1.79;100.00;98837.16;5094035;28;20032;-60
2022/01/31 01:52:29;;;;;;;8.83;3.23;;;;;;;1.95;100.00;98832.09;5094126;28;20046;-61
2022/01/31 01:54:55;;;;;;;9.20;3.47;;;;;;;1.94;100.00;98837.50;5092894;28;20268;-60
2022/01/31 01:57:23;;;;;;;12.27;3.50;;;;;;;1.87;100.00;98824.06;5094076;28;20028;-60
2022/01/31 01:59:55;;;;;;;14.40;3.10;;;;;;;1.83;100.00;98808.72;5093895;28;20455;-61
2022/01/31 02:02:21;;;;;;;11.77;3.20;;;;;;;1.81;100.00;98798.34;5093676;28;20287;-61
2022/01/31 02:04:47;;;;;;;10.20;3.40;;;;;;;1.78;100.00;98796.81;5093786;28;20272;-61
2022/01/31 02:07:13;;;;;;;9.43;2.90;;;;;;;1.81;100.00;98798.34;5093990;28;20607;-60
2022/01/31 02:09:52;;;;;;;7.73;3.20;;;;;;;1.87;100.00;98789.81;5092997;28;20038;-61
2022/01/31 02:12:18;;;;;;;11.07;3.87;;;;;;;1.85;100.00;98783.88;5093857;28;20265;-61
2022/01/31 02:14:43;;;;;;;11.57;3.50;;;;;;;1.87;100.00;98774.00;5093677;28;20621;-60
2022/01/31 02:17:09;;;;;;;10.27;3.10;;;;;;;1.93;100.00;98767.34;5093840;28;20042;-61
2022/01/31 02:19:34;;;;;;;8.47;3.33;;;;;;;2.02;100.00;98763.78;5093666;28;20082;-61
2022/01/31 02:22:00;;;;;;;9.93;3.43;;;;;;;1.97;100.00;98742.31;5093604;28;20032;-61
2022/01/31 02:24:25;;;;;;;10.50;3.20;;;;;;;1.90;100.00;98747.38;5093591;28;20035;-61
2022/01/31 02:26:51;;;;;;;11.37;3.20;;;;;;;1.88;100.00;98735.31;5092271;28;20131;-61
2022/01/31 02:29:16;;;;;;;10.50;3.60;;;;;;;1.85;100.00;98728.53;5093890;28;20036;-60
2022/01/31 02:31:44;;;;;;;9.57;3.13;;;;;;;1.87;100.00;98725.75;5093321;28;20040;-61
2022/01/31 02:34:10;;;;;;;11.33;3.20;;;;;;;1.78;100.00;98709.06;5093540;28;20390;-60
2022/01/31 02:36:36;;;;;;;14.50;3.70;;;;;;;1.77;100.00;98707.41;5093450;28;20298;-61
2022/01/31 02:39:01;;;;;;;11.87;3.73;;;;;;;1.78;100.00;98683.56;5092059;28;20468;-61
2022/01/31 02:41:30;;;;;;;12.37;3.50;;;;;;;1.75;100.00;98690.91;5093286;28;20031;-60
2022/01/31 02:43:56;;;;;;;10.87;3.57;;;;;;;1.74;100.00;98679.56;5093218;28;20064;-61
2022/01/31 02:46:25;;;;;;;9.43;3.17;;;;;;;1.71;100.00;98682.50;5093306;28;20307;-60
2022/01/31 02:48:53;;;;;;;11.00;3.87;;;;;;;1.75;100.00;98677.75;5093207;28;20534;-61
2022/01/31 02:51:24;;;;;;;10.67;3.87;;;;;;;1.71;100.00;98673.78;5093131;28;20272;-61
2022/01/31 02:53:50;;;;;;;11.60;3.00;;;;;;;1.66;100.00;98670.75;5093016;28;20370;-62
2022/01/31 02:56:15;;;;;;;10.27;4.40;;;;;;;1.63;100.00;98657.88;5091738;28;20284;-61
2022/01/31 02:58:41;;;;;;;13.10;3.23;;;;;;;1.58;100.00;98653.09;5093122;28;20059;-61
2022/01/31 03:01:07;;;;;;;10.37;3.10;;;;;;;1.58;100.00;98649.63;5092701;28;20039;-61
2022/01/31 03:03:33;;;;;;;9.57;3.33;;;;;;;1.61;100.00;98642.28;5092786;28;20566;-61
2022/01/31 03:05:58;;;;;;;9.67;4.10;;;;;;;1.69;100.00;98652.03;5092599;28;20264;-61
2022/01/31 03:08:24;;;;;;;12.50;3.37;;;;;;;1.68;100.00;98653.00;5092685;28;20115;-61
2022/01/31 03:10:51;;;;;;;9.13;3.40;;;;;;;1.65;100.00;98645.41;5092389;28;20082;-61
2022/01/31 03:13:18;;;;;;;9.50;3.00;;;;;;;1.65;100.00;98637.50;5092672;28;20477;-61
2022/01/31 03:15:43;;;;;;;10.77;3.60;;;;;;;1.62;100.00;98640.44;5091644;28;20629;-62
2022/01/31 03:18:09;;;;;;;9.70;3.23;;;;;;;1.63;100.00;98624.50;5092500;28;20268;-61
2022/01/31 03:20:34;;;;;;;17.27;4.70;;;;;;;1.67;100.00;98615.31;5092356;28;20020;-61
2022/01/31 03:23:00;;;;;;;8.73;3.17;;;;;;;1.77;100.00;98604.69;5092636;28;20031;-61
2022/01/31 03:25:26;;;;;;;10.30;3.47;;;;;;;1.76;100.00;98598.56;5092402;28;20082;-62
2022/01/31 03:27:51;;;;;;;7.40;3.30;;;;;;;1.77;100.00;98597.59;5092205;28;20063;-61
2022/01/31 03:30:20;;;;;;;12.17;3.13;;;;;;;1.82;100.00;98586.63;5091989;28;20374;-62
2022/01/31 03:32:46;;;;;;;11.73;3.60;;;;;;;1.83;100.00;98588.28;5092128;28;20036;-62
2022/01/31 03:35:12;;;;;;;9.43;4.20;;;;;;;1.81;100.00;98584.97;5092159;28;20280;-62
2022/01/31 03:37:38;;;;;;;9.97;2.97;;;;;;;1.78;100.00;98572.09;5092173;28;20265;-62
2022/01/31 03:40:07;;;;;;;15.90;4.40;;;;;;;1.80;100.00;98563.06;5091876;28;20734;-61
2022/01/31 03:42:33;;;;;;;11.60;3.37;;;;;;;1.74;100.00;98558.38;5092023;28;20028;-59
2022/01/31 03:44:58;;;;;;;11.53;3.43;;;;;;;1.75;100.00;98546.88;5092219;28;20336;-60
2022/01/31 03:47:24;;;;;;;11.37;3.47;;;;;;;1.68;100.00;98532.69;5092035;28;20378;-60
2022/01/31 03:49:51;;;;;;;9.73;4.40;;;;;;;1.69;100.00;98541.41;5091762;28;20397;-60
2022/01/31 03:52:17;;;;;;;8.83;3.77;;;;;;;1.68;100.00;98527.41;5091911;28;20027;-61
2022/01/31 03:54:42;;;;;;;14.03;3.97;;;;;;;1.57;100.00;98527.69;5091965;28;20261;-61
2022/01/31 03:57:08;;;;;;;8.80;3.43;;;;;;;1.56;100.00;98517.28;5091772;28;20039;-61
2022/01/31 03:59:34;;;;;;;10.60;3.23;;;;;;;1.48;100.00;98510.19;5091900;28;20031;-61
2022/01/31 04:02:02;;;;;;;13.50;3.70;;;;;;;1.49;100.00;98496.03;5091779;28;20533;-60
2022/01/31 04:04:27;;;;;;;8.60;3.37;;;;;;;1.45;100.00;98479.72;5091733;28;20036;-60
2022/01/31 04:06:53;;;;;;;11.70;3.50;;;;;;;1.45;100.00;98484.97;5090696;28;20333;-60
2022/01/31 04:09:19;;;;;;;12.30;3.53;;;;;;;1.38;100.00;98468.16;5091723;28;20035;-60
2022/01/31 04:11:45;;;;;;;9.57;3.67;;;;;;;1.36;100.00;98479.81;5091682;28;20273;-60
2022/01/31 04:14:12;;;;;;;10.03;3.20;;;;;;;1.32;100.00;98483.72;5091652;28;20499;-61
2022/01/31 04:16:38;;;;;;;11.80;3.23;;;;;;;1.32;100.00;98474.03;5091789;28;20032;-60
2022/01/31 04:19:04;;;;;;;12.13;3.67;;;;;;;1.23;100.00;98472.31;5091819;28;20253;-61
2022/01/31 04:21:30;;;;;;;11.87;3.30;;;;;;;1.27;100.00;98470.22;5091608;28;20276;-61
2022/01/31 04:23:56;;;;;;;8.83;3.20;;;;;;;1.14;100.00;98462.72;5091449;28;20748;-61
2022/01/31 04:26:21;;;;;;;11.33;3.70;;;;;;;1.08;100.00;98460.69;5091186;28;20028;-61
2022/01/31 04:28:50;;;;;;;10.33;4.63;;;;;;;1.18;100.00;98468.50;5091461;28;20107;-61
2022/01/31 04:33:50;;;;;;;9.87;3.60;;;;;;;1.26;100.00;98439.63;5091634;28;20345;-62
2022/01/31 04:36:16;;;;;;;9.20;3.40;;;;;;;1.18;100.00;98435.09;5091328;28;20276;-62
2022/01/31 04:38:46;;;;;;;14.37;4.03;;;;;;;1.24;100.00;98439.78;5091294;28;20264;-62
2022/01/31 04:41:12;;;;;;;10.97;3.83;;;;;;;1.26;100.00;98439.63;5091051;28;20276;-62
2022/01/31 04:43:38;;;;;;;12.13;4.53;;;;;;;1.26;100.00;98415.94;5091291;28;20338;-63
2022/01/31 04:46:06;;;;;;;10.40;3.10;;;;;;;1.27;100.00;98393.91;5091156;28;20272;-61
2022/01/31 04:48:33;;;;;;;12.03;3.60;;;;;;;1.27;100.00;98368.38;5091145;28;20102;-62
2022/01/31 04:50:58;;;;;;;11.77;3.57;;;;;;;1.26;100.00;98342.25;5090951;28;20265;-62
2022/01/31 04:53:24;;;;;;;12.93;3.60;;;;;;;1.25;100.00;98351.94;5091144;28;20268;-62
2022/01/31 04:55:50;;;;;;;12.27;4.20;;;;;;;1.36;100.00;98356.09;5091046;28;20040;-62
2022/01/31 04:58:15;;;;;;;13.77;4.33;;;;;;;1.39;100.00;98339.97;5091199;28;20392;-62
2022/01/31 05:00:42;;;;;;;13.00;3.60;;;;;;;1.39;100.00;98330.28;5090962;28;20030;-62
2022/01/31 05:03:16;;;;;;;13.23;3.70;;;;;;;1.30;100.00;98320.69;5091023;28;20032;-62
2022/01/31 05:05:43;;;;;;;11.50;4.63;;;;;;;1.28;100.00;98309.50;5091082;28;20335;-62
2022/01/31 05:08:09;;;;;;;10.30;3.63;;;;;;;1.22;100.00;98315.41;5091058;28;20265;-62
2022/01/31 05:10:41;;;;;;;10.30;3.77;;;;;;;1.27;100.00;98305.22;5090900;28;20280;-62
2022/01/31 05:13:07;;;;;;;11.80;3.80;;;;;;;1.33;100.00;98296.69;5091152;28;20089;-62
2022/01/31 05:15:33;;;;;;;8.80;4.40;;;;;;;1.38;100.00;98309.41;5091015;28;20268;-62
2022/01/31 05:17:58;;;;;;;9.80;3.67;;;;;;;1.37;100.00;98308.56;5090980;28;20032;-62
2022/01/31 05:20:24;;;;;;;8.90;3.13;;;;;;;1.39;100.00;98303.94;5090777;28;20032;-62
2022/01/31 05:22:49;;;;;;;11.70;3.50;;;;;;;1.36;100.00;98299.03;5090968;28;20499;-62
2022/01/31 05:25:15;;;;;;;13.70;4.80;;;;;;;1.30;100.00;98278.59;5090889;28;20504;-62
2022/01/31 05:27:40;;;;;;;10.70;4.30;;;;;;;1.31;100.00;98250.47;5091056;28;20036;-62
2022/01/31 05:30:07;;;;;;;11.57;3.80;;;;;;;1.27;100.00;98238.63;5090688;28;20082;-61
2022/01/31 05:32:32;;;;;;;10.93;3.80;;;;;;;1.30;100.00;98256.69;5090875;28;20028;-60
2022/01/31 05:35:00;;;;;;;12.97;4.10;;;;;;;1.31;100.00;98251.28;5089708;28;20268;-60
2022/01/31 05:37:27;;;;;;;13.73;4.37;;;;;;;1.34;100.00;98243.06;5090962;28;20465;-61
2022/01/31 05:39:52;;;;;;;13.50;3.80;;;;;;;1.31;100.00;98232.88;5093460;28;20272;-61
2022/01/31 05:42:18;;;;;;;9.90;4.03;;;;;;;1.36;100.00;98238.47;5094186;28;20283;-62
2022/01/31 05:44:46;;;;;;;11.27;3.93;;;;;;;1.25;100.00;98237.94;5094590;28;20040;-61
2022/01/31 05:47:14;;;;;;;12.10;4.37;;;;;;;1.24;100.00;98229.22;5094405;28;20040;-62
2022/01/31 05:49:40;;;;;;;16.50;3.83;;;;;;;1.06;100.00;98234.59;5094414;28;20629;-63
2022/01/31 05:52:07;;;;;;;9.20;3.80;;;;;;;1.07;100.00;98215.19;5084771;28;20265;-62
2022/01/31 05:54:35;;;;;;;14.27;3.70;;;;;;;1.03;100.00;98216.50;5072775;28;20029;-62
2022/01/31 05:57:02;;;;;;;11.60;3.93;;;;;;;1.04;100.00;98219.94;5083623;28;20284;-62
2022/01/31 05:59:28;;;;;;;11.67;3.57;;;;;;;1.03;100.00;98215.69;5079996;28;20288;-62
2022/01/31 06:01:54;;;;;;;18.77;4.60;;;;;;;1.08;100.00;98223.91;5073477;28;20676;-62
2022/01/31 06:04:19;;;;;;;12.00;4.00;;;;;;;0.99;100.00;98228.31;5073820;28;20360;-62
2022/01/31 06:06:45;;;;;;;15.30;4.60;;;;;;;1.08;100.00;98226.53;5073758;28;20385;-60
2022/01/31 06:09:11;;;;;;;12.43;4.20;;;;;;;1.07;100.00;98228.34;5073565;28;20482;-60
2022/01/31 06:11:37;;;;;;;12.83;4.20;;;;;;;1.14;100.00;98212.75;5072310;28;20031;-61
2022/01/31 06:14:06;;;;;;;10.67;3.90;;;;;;;1.13;100.00;98205.03;5072921;28;20020;-61
2022/01/31 06:16:32;;;;;;;13.23;3.80;;;;;;;1.12;100.00;98206.00;5090124;28;20023;-62
2022/01/31 06:18:58;;;;;;;14.47;4.03;;;;;;;1.05;100.00;98208.44;5092479;28;20769;-61
2022/01/31 06:21:23;;;;;;;13.67;4.27;;;;;;;1.13;100.00;98210.28;5093131;28;20065;-61
2022/01/31 06:23:49;;;;;;;17.93;4.40;;;;;;;1.18;100.00;98203.53;5093627;28;20032;-61
2022/01/31 06:26:15;;;;;;;20.23;4.70;;;;;;;1.21;100.00;98187.44;5093214;28;20036;-61
2022/01/31 06:28:40;;;;;;;10.70;4.27;;;;;;;1.14;100.00;98177.72;5091690;28;20035;-61
2022/01/31 06:31:06;;;;;;;14.13;4.10;;;;;;;1.10;100.00;98169.31;5092954;28;20051;-61
2022/01/31 06:33:32;;;;;;;9.07;3.70;;;;;;;1.13;100.00;98166.38;5093316;28;20035;-61
2022/01/31 06:35:59;;;;;;;11.50;4.47;;;;;;;1.17;100.00;98166.84;5093169;28;20031;-60
2022/01/31 06:38:25;;;;;;;15.77;4.20;;;;;;;1.29;100.00;98166.41;5093100;28;20711;-60
2022/01/31 06:40:51;;;;;;;14.00;4.37;;;;;;;1.31;100.00;98164.44;5092938;28;20377;-61
2022/01/31 06:43:17;;;;;;;17.30;5.00;;;;;;;1.28;100.00;98180.53;5093033;28;20054;-61
2022/01/31 06:45:43;;;;;;;21.27;4.20;;;;;;;1.25;100.00;98167.72;5092783;28;20754;-63
2022/01/31 06:48:08;;;;;;;21.80;4.90;;;;;;;1.18;100.00;98160.63;5092418;28;20537;-64
2022/01/31 06:50:34;;;;;;;13.97;4.30;;;;;;;1.30;100.00;98157.53;5092769;28;20039;-61
2022/01/31 06:53:01;;;;;;;15.20;4.43;;;;;;;1.34;100.00;98150.97;5092840;28;20760;-65
2022/01/31 06:55:29;;;;;;;11.97;4.90;;;;;;;1.34;100.00;98145.69;5091271;28;20074;-60
2022/01/31 06:57:54;;;;;;;13.10;4.23;;;;;;;1.21;100.00;98153.22;5091316;28;20273;-61
2022/01/31 07:00:20;;;;;;;21.97;4.80;;;;;;;1.28;100.00;98156.03;5092742;28;20295;-64
2022/01/31 07:02:47;;;;;;;18.30;4.17;;;;;;;1.34;100.00;98169.38;5092856;28;20043;-63
2022/01/31 07:05:14;;;;;;;16.07;4.40;;;;;;;1.51;100.00;98158.84;5092545;28;20024;-62
2022/01/31 07:07:41;;;;;;;18.27;4.90;;;;;;;1.56;100.00;98149.50;5092504;28;20720;-64
2022/01/31 07:10:07;;;;;;;13.90;4.20;;;;;;;1.52;100.00;98152.59;5091645;28;20264;-64
2022/01/31 07:12:39;;;;;;;13.57;4.17;;;;;;;1.48;100.00;98157.41;5084964;28;20333;-64
2022/01/31 07:15:07;;;;;;;11.77;4.20;;;;;;;1.42;100.00;98145.69;5072255;28;20279;-62
2022/01/31 07:17:35;;;;;;;15.30;4.17;;;;;;;1.54;100.00;98133.03;5092163;28;20264;-63
2022/01/31 07:20:05;;;;;;;15.97;4.50;;;;;;;1.54;100.00;98125.13;5091745;28;20735;-64
2022/01/31 07:22:36;;;;;;;10.47;3.90;;;;;;;1.53;100.00;98127.94;5092387;28;20289;-61
2022/01/31 07:25:07;;;;;;;11.37;4.40;;;;;;;1.51;100.00;98124.63;5089868;28;20284;-62
2022/01/31 07:27:33;;;;;;;14.30;4.43;;;;;;;1.42;100.00;98127.28;5087739;28;20700;-63
2022/01/31 07:29:58;;;;;;;11.77;4.60;;;;;;;1.51;100.00;98116.72;5082502;28;20369;-63
2022/01/31 07:32:25;;;;;;;13.20;5.03;;;;;;;1.64;100.00;98119.69;5083708;28;20086;-62
2022/01/31 07:34:55;;;;;;;11.60;4.97;;;;;;;1.59;100.00;98116.75;5086259;28;20392;-61
2022/01/31 07:37:21;;;;;;;20.00;5.73;;;;;;;1.68;100.00;98108.69;5086732;28;20264;-61
2022/01/31 07:39:46;;;;;;;11.47;4.67;;;;;;;1.79;100.00;98102.25;5092608;28;20640;-61
2022/01/31 07:42:12;;;;;;;11.20;4.90;;;;;;;1.70;100.00;98103.25;5091421;28;20429;-61
2022/01/31 07:44:38;;;;;;;12.90;4.80;;;;;;;1.86;100.00;98097.97;5091790;28;20107;-61
2022/01/31 07:47:05;;;;;;;15.93;5.90;;;;;;;1.79;100.00;98102.25;5074866;28;20043;-62
2022/01/31 07:49:30;;;;;;;16.57;4.80;;;;;;;1.89;100.00;98104.72;5089408;28;20032;-63
2022/01/31 07:51:58;;;;;;;13.93;4.87;;;;;;;1.94;100.00;98110.31;5088634;28;20609;-62
2022/01/31 07:54:24;;;;;;;19.57;4.90;;;;;;;2.04;100.00;98098.59;5091709;28;20032;-62
2022/01/31 07:56:49;;;;;;;15.13;4.93;;;;;;;2.08;100.00;98102.53;5091741;28;20622;-63
2022/01/31 07:59:15;;;;;;;13.27;4.67;;;;;;;2.08;100.00;98099.88;5090232;28;20429;-62
2022/01/31 08:01:40;;;;;;;11.43;4.60;;;;;;;2.09;100.00;98092.81;5091001;28;20366;-61
2022/01/31 08:04:06;;;;;;;14.60;4.60;;;;;;;2.21;100.00;98095.91;5080478;28;20032;-62
2022/01/31 08:06:31;;;;;;;13.17;4.70;;;;;;;2.27;100.00;98097.88;5081920;28;20134;-64
2022/01/31 08:08:57;;;;;;;14.63;4.47;;;;;;;2.21;100.00;98091.47;5087867;28;20027;-64
2022/01/31 08:11:31;;;;;;;13.93;4.40;;;;;;;2.13;100.00;98073.88;5091369;28;20027;-64
2022/01/31 08:14:00;;;;;;;11.57;4.13;;;;;;;2.22;100.00;98061.47;5095426;28;20138;-61
2022/01/31 08:16:27;;;;;;;11.93;5.00;;;;;;;2.14;100.00;98053.59;5090977;28;20618;-61
2022/01/31 08:18:52;;;;;;;10.67;4.27;;;;;;;2.22;100.00;98055.38;5089126;28;20289;-63
2022/01/31 08:21:20;;;;;;;14.47;5.10;;;;;;;2.30;100.00;98048.28;5089856;28;20304;-62
2022/01/31 08:23:46;;;;;;;13.37;4.60;;;;;;;2.47;100.00;98043.75;5091287;28;20024;-63
2022/01/31 08:26:15;;;;;;;11.80;4.57;;;;;;;2.29;100.00;98048.47;5091081;28;20804;-64
2022/01/31 08:28:45;;;;;;;10.67;4.20;;;;;;;2.29;100.00;98053.72;5091090;28;20020;-63
2022/01/31 08:33:48;;;;;;;13.10;4.67;;;;;;;2.38;100.00;98040.34;5091169;28;20753;-64
2022/01/31 08:36:14;;;;;;;15.37;4.67;;;;;;;2.41;100.00;98018.91;5089940;28;20264;-63
2022/01/31 08:38:42;;;;;;;17.00;4.70;;;;;;;2.38;100.00;98027.16;5091096;28;20268;-65
2022/01/31 08:41:08;;;;;;;12.37;4.50;;;;;;;2.57;100.00;98017.16;5090895;28;20272;-62
2022/01/31 08:43:35;;;;;;;11.93;4.80;;;;;;;2.74;100.00;98022.19;5091037;28;20303;-62
2022/01/31 08:46:01;;;;;;;11.83;4.70;;;;;;;2.83;100.00;98017.69;5090963;28;20313;-62
2022/01/31 08:48:28;;;;;;;11.40;4.90;;;;;;;2.73;100.00;98014.47;5091071;28;20260;-62
2022/01/31 08:50:54;;;;;;;16.40;5.37;;;;;;;2.82;100.00;98010.75;5091134;28;20284;-62
2022/01/31 08:53:21;;;;;;;12.63;5.10;;;;;;;2.84;100.00;98014.06;5090269;28;20766;-61
2022/01/31 08:56:05;;;;;;;12.63;4.63;;;;;;;2.45;100.00;97995.66;5089789;28;20279;-61
2022/01/31 08:58:30;;;;;;;;;;;;;;;2.40;100.00;97995.34;5090210;28;20256;-61
2022/01/31 09:01:00;;;;;;;12.47;4.50;;;;;;;2.50;100.00;97988.88;5077203;28;19923;-61
2022/01/31 09:06:14;;;;;;;14.90;4.63;;;;;;;2.46;100.00;97982.28;5070704;28;20261;-61
2022/01/31 09:08:40;;;;;;;11.33;4.70;;;;;;;2.51;100.00;97979.97;5070210;28;21052;-61
2022/01/31 09:11:06;;;;;;;16.40;5.30;;;;;;;2.35;100.00;97971.31;5070463;28;20024;-60
2022/01/31 09:13:32;;;;;;;15.77;7.37;;;;;;;2.48;100.00;97972.41;5072478;28;20093;-61
2022/01/31 09:15:59;;;;;;;12.80;4.67;;;;;;;2.48;100.00;97963.66;5074521;28;20257;-61
2022/01/31 09:18:24;;;;;;;14.90;5.07;;;;;;;2.47;100.00;97959.38;5074334;28;20028;-61
2022/01/31 09:20:50;;;;;;;16.63;4.67;;;;;;;2.59;100.00;97954.53;5074199;28;20303;-61
2022/01/31 09:23:15;;;;;;;10.20;4.53;;;;;;;2.63;100.00;97947.94;5077573;28;20431;-62
2022/01/31 09:25:46;;;;;;;13.80;4.90;;;;;;;2.80;100.00;97942.34;5094489;28;20036;-61
2022/01/31 09:28:12;;;;;;;11.90;4.73;;;;;;;2.79;100.00;97940.69;5093336;28;20032;-62
2022/01/31 09:30:40;;;;;;;10.60;5.17;;;;;;;2.90;100.00;97936.81;5094347;28;20347;-62
2022/01/31 09:33:06;;;;;;;11.33;4.63;;;;;;;3.11;100.00;97936.19;5094683;28;20321;-62
2022/01/31 09:35:33;;;;;;;14.60;5.10;;;;;;;2.94;100.00;97938.13;5094596;28;20796;-62
2022/01/31 09:38:00;;;;;;;13.83;5.33;;;;;;;3.04;100.00;97935.22;5093252;28;20272;-64
2022/01/31 09:40:26;;;;;;;18.07;6.10;;;;;;;2.94;100.00;97927.56;5094203;28;20264;-63
2022/01/31 09:45:51;;;;;;;13.40;5.65;;;;;;;2.88;100.00;97926.44;5094653;28;20273;-63
2022/01/31 09:51:03;;;;;;;14.13;5.17;;;;;;;2.66;100.00;97913.25;5094224;28;20319;-63
2022/01/31 09:54:02;;;;;;;14.40;5.47;;;;;;;2.43;100.00;97905.34;5091814;28;20653;-63
2022/01/31 09:56:37;;;;;;;15.93;6.13;;;;;;;2.25;100.00;97889.00;5089858;28;20268;-63
2022/01/31 09:59:05;;;;;;;14.10;6.00;;;;;;;2.20;100.00;97884.25;5093803;28;20267;-63
2022/01/31 10:01:34;;;;;;;16.57;6.40;;;;;;;2.05;100.00;97865.75;5083433;28;20657;-63
2022/01/31 10:04:09;;;;;;;15.07;5.93;;;;;;;1.96;100.00;97855.44;5084290;28;20622;-63
2022/01/31 10:06:38;;;;;;;17.67;7.33;;;;;;;2.02;100.00;97857.34;5079937;28;20319;-61
2022/01/31 10:09:16;;;;;;;21.57;7.40;;;;;;;1.84;100.00;97851.53;5083764;28;20352;-62
2022/01/31 10:17:24;;;;;;;178.30;88.37;;;;;;;1.74;100.00;97825.41;5079308;28;20591;-63
2022/01/31 10:19:51;;;;;;;18.07;7.00;;;;;;;1.72;100.00;97822.97;5073207;28;20284;-63
2022/01/31 10:22:19;;;;;;;20.13;8.60;;;;;;;1.55;100.00;97820.56;5078768;28;20302;-62
2022/01/31 10:24:47;;;;;;;20.27;7.73;;;;;;;1.49;100.00;97805.47;5084043;28;20675;-61
2022/01/31 10:27:19;;;;;;;22.20;9.37;;;;;;;1.41;100.00;97798.41;5088594;28;20261;-61
2022/01/31 10:29:47;;;;;;;20.53;9.90;;;;;;;1.18;100.00;97793.06;5073069;28;20612;-65
2022/01/31 10:32:24;;;;;;;22.13;9.00;;;;;;;1.03;100.00;97785.09;5073002;28;20265;-63
2022/01/31 10:34:56;;;;;;;26.00;9.02;;;;;;;1.15;100.00;97779.47;5073173;28;20267;-64
2022/01/31 10:37:23;;;;;;;24.35;9.60;;;;;;;1.23;100.00;97785.50;5071764;28;20111;-62
2022/01/31 10:54:27;;;;;;;28.50;10.60;;;;;;;0.90;100.00;97747.97;5092956;28;20059;-63
2022/01/31 10:56:55;;;;;;;25.25;10.82;;;;;;;0.92;100.00;97730.22;5093058;28;20540;-63
2022/01/31 10:59:32;;;;;;;30.83;13.52;;;;;;;0.84;100.00;97729.41;5092167;28;20024;-65
2022/01/31 11:02:00;;;;;;;37.03;11.85;;;;;;;0.70;100.00;97725.66;5089169;28;20021;-62
2022/01/31 11:04:30;;;;;;;27.05;11.35;;;;;;;0.64;100.00;97719.28;5081196;28;20045;-65
2022/01/31 11:06:59;;;;;;;34.27;12.43;;;;;;;0.82;100.00;97715.59;5076155;28;20089;-64
2022/01/31 11:09:25;;;;;;;51.67;19.30;;;;;;;0.94;100.00;97714.25;5072437;28;20307;-63
2022/01/31 11:11:51;;;;;;;45.20;19.70;;;;;;;0.89;100.00;97712.16;5072341;28;20060;-64
2022/01/31 11:14:20;;;;;;;40.63;17.13;;;;;;;0.82;100.00;97711.16;5070878;28;20037;-65
2022/01/31 11:16:47;;;;;;;34.92;14.20;;;;;;;0.67;100.00;97705.00;5072293;28;20393;-64
2022/01/31 11:19:16;;;;;;;30.85;14.25;;;;;;;0.83;100.00;97709.34;5072221;28;20066;-65
2022/01/31 11:21:45;;;;;;;39.80;14.93;;;;;;;0.82;100.00;97705.91;5070647;28;20051;-65
2022/01/31 11:24:19;;;;;;;37.42;18.70;;;;;;;0.86;100.00;97709.84;5071984;28;20040;-65
2022/01/31 11:27:12;;;;;;;38.20;17.67;;;;;;;0.94;100.00;97695.84;5071835;28;20020;-65
2022/01/31 11:29:45;;;;;;;36.72;17.05;;;;;;;1.00;100.00;97690.72;5080018;28;20059;-65
2022/01/31 11:32:12;;;;;;;36.40;15.88;;;;;;;0.93;100.00;97688.94;5092114;28;20465;-64
2022/01/31 11:34:40;;;;;;;32.65;15.25;;;;;;;0.93;100.00;97686.31;5091225;28;20056;-66
2022/01/31 11:37:10;;;;;;;38.28;16.17;;;;;;;0.88;100.00;97684.22;5091245;28;20385;-65
2022/01/31 11:39:41;;;;;;;33.47;17.30;;;;;;;1.04;100.00;97680.66;5091969;28;20036;-66
2022/01/31 11:42:07;;;;;;;33.88;15.38;;;;;;;0.87;100.00;97684.38;5091783;28;20111;-66
2022/01/31 11:44:44;;;;;;;32.22;12.82;;;;;;;0.86;100.00;97685.34;5092179;28;20378;-64
2022/01/31 11:47:11;;;;;;;28.70;12.80;;;;;;;0.86;100.00;97683.56;5090921;28;20032;-68
2022/01/31 11:49:44;;;;;;;32.13;14.30;;;;;;;0.98;100.00;97684.81;5090762;28;20031;-65
2022/01/31 11:52:10;;;;;;;36.65;15.90;;;;;;;0.95;100.00;97686.97;5092025;28;20048;-69
2022/01/31 11:55:05;;;;;;;34.60;13.90;;;;;;;0.91;100.00;97680.41;5091961;28;20028;-68
2022/01/31 11:57:33;;;;;;;34.60;16.63;;;;;;;0.91;100.00;97681.25;5090531;28;20138;-68
2022/01/31 12:00:01;;;;;;;30.10;14.23;;;;;;;0.99;100.00;97675.13;5091885;28;20035;-68
2022/01/31 12:02:30;;;;;;;33.20;15.38;;;;;;;1.10;100.00;97680.00;5090988;28;20039;-69
2022/01/31 12:05:01;;;;;;;27.20;14.30;;;;;;;1.09;100.00;97668.66;5091881;28;20401;-69